sensor_id;sensor_type;location;lat;lon;timestamp;P1;durP1;ratioP1;P2;durP2;ratioP2
1569;SDS011;778;50.120;8.698;2022-08-19T00:02:03;19.27;;;17.40;;
1569;SDS011;778;50.120;8.698;2022-08-19T00:04:32;20.60;;;18.87;;
1569;SDS011;778;50.120;8.698;2022-08-19T00:07:03;19.80;;;17.93;;
1569;SDS011;778;50.120;8.698;2022-08-19T00:09:34;19.27;;;17.40;;
1569;SDS011;778;50.120;8.698;2022-08-19T00:12:03;18.00;;;16.30;;
1569;SDS011;778;50.120;8.698;2022-08-19T00:14:32;19.37;;;17.60;;
1569;SDS011;778;50.120;8.698;2022-08-19T00:17:00;17.47;;;15.87;;
1569;SDS011;778;50.120;8.698;2022-08-19T00:19:31;19.97;;;17.50;;
1569;SDS011;778;50.120;8.698;2022-08-19T00:22:00;19.30;;;17.50;;
1569;SDS011;778;50.120;8.698;2022-08-19T00:24:29;19.17;;;17.27;;
1569;SDS011;778;50.120;8.698;2022-08-19T00:26:58;19.97;;;18.07;;
1569;SDS011;778;50.120;8.698;2022-08-19T00:29:48;19.33;;;17.60;;
1569;SDS011;778;50.120;8.698;2022-08-19T00:32:19;18.07;;;16.27;;
1569;SDS011;778;50.120;8.698;2022-08-19T00:34:49;20.53;;;18.53;;
1569;SDS011;778;50.120;8.698;2022-08-19T00:37:19;20.80;;;18.80;;
1569;SDS011;778;50.120;8.698;2022-08-19T00:39:49;22.23;;;20.23;;
1569;SDS011;778;50.120;8.698;2022-08-19T00:42:19;19.43;;;17.80;;
1569;SDS011;778;50.120;8.698;2022-08-19T00:44:49;19.60;;;17.80;;
1569;SDS011;778;50.120;8.698;2022-08-19T00:47:17;19.77;;;18.07;;
1569;SDS011;778;50.120;8.698;2022-08-19T00:49:48;19.33;;;17.53;;
1569;SDS011;778;50.120;8.698;2022-08-19T00:52:21;18.80;;;17.03;;
1569;SDS011;778;50.120;8.698;2022-08-19T00:54:53;19.93;;;17.93;;
1569;SDS011;778;50.120;8.698;2022-08-19T00:57:25;19.90;;;17.90;;
1569;SDS011;778;50.120;8.698;2022-08-19T00:59:57;19.93;;;18.10;;
1569;SDS011;778;50.120;8.698;2022-08-19T01:02:31;19.63;;;17.83;;
1569;SDS011;778;50.120;8.698;2022-08-19T01:05:01;22.70;;;20.50;;
1569;SDS011;778;50.120;8.698;2022-08-19T01:07:36;18.30;;;16.70;;
1569;SDS011;778;50.120;8.698;2022-08-19T01:10:07;20.53;;;18.70;;
1569;SDS011;778;50.120;8.698;2022-08-19T01:12:40;21.73;;;19.53;;
1569;SDS011;778;50.120;8.698;2022-08-19T01:15:10;20.33;;;18.43;;
1569;SDS011;778;50.120;8.698;2022-08-19T01:17:43;19.77;;;17.93;;
1569;SDS011;778;50.120;8.698;2022-08-19T01:20:14;21.83;;;18.47;;
1569;SDS011;778;50.120;8.698;2022-08-19T01:22:49;18.10;;;16.27;;
1569;SDS011;778;50.120;8.698;2022-08-19T01:25:20;17.60;;;16.00;;
1569;SDS011;778;50.120;8.698;2022-08-19T01:27:54;19.80;;;17.90;;
1569;SDS011;778;50.120;8.698;2022-08-19T01:30:36;19.97;;;18.17;;
1569;SDS011;778;50.120;8.698;2022-08-19T01:33:16;17.87;;;16.27;;
1569;SDS011;778;50.120;8.698;2022-08-19T01:35:45;19.43;;;17.63;;
1569;SDS011;778;50.120;8.698;2022-08-19T01:38:21;17.50;;;16.00;;
1569;SDS011;778;50.120;8.698;2022-08-19T01:40:53;17.37;;;15.43;;
1569;SDS011;778;50.120;8.698;2022-08-19T01:43:21;18.77;;;17.00;;
1569;SDS011;778;50.120;8.698;2022-08-19T01:45:49;16.90;;;15.30;;
1569;SDS011;778;50.120;8.698;2022-08-19T01:48:19;17.33;;;15.80;;
1569;SDS011;778;50.120;8.698;2022-08-19T01:50:48;21.37;;;15.90;;
1569;SDS011;778;50.120;8.698;2022-08-19T01:53:16;16.87;;;15.37;;
1569;SDS011;778;50.120;8.698;2022-08-19T01:55:46;16.63;;;15.03;;
1569;SDS011;778;50.120;8.698;2022-08-19T01:58:16;17.70;;;16.10;;
1569;SDS011;778;50.120;8.698;2022-08-19T02:00:49;17.27;;;15.60;;
1569;SDS011;778;50.120;8.698;2022-08-19T02:03:17;17.93;;;15.87;;
1569;SDS011;778;50.120;8.698;2022-08-19T02:05:45;17.37;;;15.20;;
1569;SDS011;778;50.120;8.698;2022-08-19T02:08:14;18.40;;;16.47;;
1569;SDS011;778;50.120;8.698;2022-08-19T02:10:43;17.47;;;15.90;;
1569;SDS011;778;50.120;8.698;2022-08-19T02:13:13;16.17;;;14.80;;
1569;SDS011;778;50.120;8.698;2022-08-19T02:15:48;17.13;;;15.70;;
1569;SDS011;778;50.120;8.698;2022-08-19T02:18:16;14.93;;;13.60;;
1569;SDS011;778;50.120;8.698;2022-08-19T02:20:45;17.50;;;15.80;;
1569;SDS011;778;50.120;8.698;2022-08-19T02:23:14;19.00;;;17.17;;
1569;SDS011;778;50.120;8.698;2022-08-19T02:25:45;17.73;;;15.73;;
1569;SDS011;778;50.120;8.698;2022-08-19T02:28:16;17.23;;;15.60;;
1569;SDS011;778;50.120;8.698;2022-08-19T02:30:45;16.67;;;15.10;;
1569;SDS011;778;50.120;8.698;2022-08-19T02:33:15;16.87;;;15.37;;
1569;SDS011;778;50.120;8.698;2022-08-19T02:35:44;16.40;;;14.90;;
1569;SDS011;778;50.120;8.698;2022-08-19T02:38:14;14.70;;;13.50;;
1569;SDS011;778;50.120;8.698;2022-08-19T02:40:54;15.67;;;14.33;;
1569;SDS011;778;50.120;8.698;2022-08-19T02:43:26;17.30;;;15.90;;
1569;SDS011;778;50.120;8.698;2022-08-19T02:45:59;17.37;;;15.87;;
1569;SDS011;778;50.120;8.698;2022-08-19T02:48:28;16.37;;;14.83;;
1569;SDS011;778;50.120;8.698;2022-08-19T02:50:59;16.70;;;15.20;;
1569;SDS011;778;50.120;8.698;2022-08-19T02:53:28;16.10;;;14.50;;
1569;SDS011;778;50.120;8.698;2022-08-19T02:55:56;17.40;;;15.70;;
1569;SDS011;778;50.120;8.698;2022-08-19T02:58:26;15.80;;;14.30;;
1569;SDS011;778;50.120;8.698;2022-08-19T03:00:56;17.03;;;15.50;;
1569;SDS011;778;50.120;8.698;2022-08-19T03:03:25;15.37;;;13.93;;
1569;SDS011;778;50.120;8.698;2022-08-19T03:06:02;16.33;;;14.93;;
1569;SDS011;778;50.120;8.698;2022-08-19T03:08:37;15.30;;;13.27;;
1569;SDS011;778;50.120;8.698;2022-08-19T03:11:11;15.60;;;14.13;;
1569;SDS011;778;50.120;8.698;2022-08-19T03:13:43;16.70;;;15.07;;
1569;SDS011;778;50.120;8.698;2022-08-19T03:16:12;14.97;;;13.60;;
1569;SDS011;778;50.120;8.698;2022-08-19T03:18:40;15.50;;;13.90;;
1569;SDS011;778;50.120;8.698;2022-08-19T03:21:09;14.67;;;13.40;;
1569;SDS011;778;50.120;8.698;2022-08-19T03:23:44;14.50;;;13.20;;
1569;SDS011;778;50.120;8.698;2022-08-19T03:26:13;15.17;;;13.83;;
1569;SDS011;778;50.120;8.698;2022-08-19T03:28:44;14.87;;;13.47;;
1569;SDS011;778;50.120;8.698;2022-08-19T03:31:24;13.93;;;12.83;;
1569;SDS011;778;50.120;8.698;2022-08-19T03:34:11;15.33;;;13.20;;
1569;SDS011;778;50.120;8.698;2022-08-19T03:36:43;14.83;;;13.43;;
1569;SDS011;778;50.120;8.698;2022-08-19T03:39:13;16.13;;;12.33;;
1569;SDS011;778;50.120;8.698;2022-08-19T03:41:43;16.37;;;14.97;;
1569;SDS011;778;50.120;8.698;2022-08-19T03:44:15;15.33;;;13.83;;
1569;SDS011;778;50.120;8.698;2022-08-19T03:46:47;14.87;;;13.50;;
1569;SDS011;778;50.120;8.698;2022-08-19T03:49:18;15.20;;;13.17;;
1569;SDS011;778;50.120;8.698;2022-08-19T03:51:54;15.60;;;14.23;;
1569;SDS011;778;50.120;8.698;2022-08-19T03:54:26;13.83;;;12.63;;
1569;SDS011;778;50.120;8.698;2022-08-19T03:56:56;14.93;;;13.40;;
1569;SDS011;778;50.120;8.698;2022-08-19T03:59:28;15.43;;;13.83;;
1569;SDS011;778;50.120;8.698;2022-08-19T04:02:00;13.63;;;12.43;;
1569;SDS011;778;50.120;8.698;2022-08-19T04:04:35;14.30;;;13.10;;
1569;SDS011;778;50.120;8.698;2022-08-19T04:07:05;13.97;;;12.67;;
1569;SDS011;778;50.120;8.698;2022-08-19T04:09:35;13.40;;;12.17;;
1569;SDS011;778;50.120;8.698;2022-08-19T04:12:04;15.43;;;14.10;;
1569;SDS011;778;50.120;8.698;2022-08-19T04:14:35;15.47;;;14.30;;
1569;SDS011;778;50.120;8.698;2022-08-19T04:17:04;13.73;;;12.53;;
1569;SDS011;778;50.120;8.698;2022-08-19T04:19:33;15.07;;;13.77;;
1569;SDS011;778;50.120;8.698;2022-08-19T04:22:03;15.03;;;13.90;;
1569;SDS011;778;50.120;8.698;2022-08-19T04:24:33;13.77;;;12.60;;
1569;SDS011;778;50.120;8.698;2022-08-19T04:27:03;15.90;;;13.93;;
1569;SDS011;778;50.120;8.698;2022-08-19T04:29:33;14.40;;;13.10;;
1569;SDS011;778;50.120;8.698;2022-08-19T04:32:05;16.03;;;14.40;;
1569;SDS011;778;50.120;8.698;2022-08-19T04:34:35;14.93;;;13.43;;
1569;SDS011;778;50.120;8.698;2022-08-19T04:37:25;14.43;;;13.33;;
1569;SDS011;778;50.120;8.698;2022-08-19T04:40:01;16.27;;;14.67;;
1569;SDS011;778;50.120;8.698;2022-08-19T04:42:50;15.57;;;14.03;;
1569;SDS011;778;50.120;8.698;2022-08-19T04:45:21;15.07;;;13.67;;
1569;SDS011;778;50.120;8.698;2022-08-19T04:47:53;15.90;;;14.40;;
1569;SDS011;778;50.120;8.698;2022-08-19T04:50:43;15.87;;;14.27;;
1569;SDS011;778;50.120;8.698;2022-08-19T04:53:12;17.37;;;15.87;;
1569;SDS011;778;50.120;8.698;2022-08-19T04:55:40;16.97;;;15.20;;
1569;SDS011;778;50.120;8.698;2022-08-19T04:58:09;15.27;;;14.00;;
1569;SDS011;778;50.120;8.698;2022-08-19T05:00:39;17.73;;;15.50;;
1569;SDS011;778;50.120;8.698;2022-08-19T05:03:08;16.80;;;15.30;;
1569;SDS011;778;50.120;8.698;2022-08-19T05:05:38;18.57;;;16.67;;
1569;SDS011;778;50.120;8.698;2022-08-19T05:08:10;15.73;;;14.33;;
1569;SDS011;778;50.120;8.698;2022-08-19T05:10:41;14.03;;;12.90;;
1569;SDS011;778;50.120;8.698;2022-08-19T05:13:10;15.83;;;14.23;;
1569;SDS011;778;50.120;8.698;2022-08-19T05:15:40;15.23;;;13.83;;
1569;SDS011;778;50.120;8.698;2022-08-19T05:18:09;14.87;;;13.40;;
1569;SDS011;778;50.120;8.698;2022-08-19T05:20:55;15.47;;;13.87;;
1569;SDS011;778;50.120;8.698;2022-08-19T05:23:41;15.43;;;14.00;;
1569;SDS011;778;50.120;8.698;2022-08-19T05:26:11;16.90;;;15.50;;
1569;SDS011;778;50.120;8.698;2022-08-19T05:28:39;15.13;;;13.80;;
1569;SDS011;778;50.120;8.698;2022-08-19T05:31:09;14.43;;;13.03;;
1569;SDS011;778;50.120;8.698;2022-08-19T05:33:38;16.23;;;14.73;;
1569;SDS011;778;50.120;8.698;2022-08-19T05:36:07;14.70;;;13.40;;
1569;SDS011;778;50.120;8.698;2022-08-19T05:38:35;13.70;;;12.50;;
1569;SDS011;778;50.120;8.698;2022-08-19T05:41:06;13.53;;;12.40;;
1569;SDS011;778;50.120;8.698;2022-08-19T05:43:37;14.70;;;13.30;;
1569;SDS011;778;50.120;8.698;2022-08-19T05:46:05;15.33;;;13.77;;
1569;SDS011;778;50.120;8.698;2022-08-19T05:48:36;15.20;;;13.70;;
1569;SDS011;778;50.120;8.698;2022-08-19T05:51:05;13.80;;;12.50;;
1569;SDS011;778;50.120;8.698;2022-08-19T05:53:34;15.53;;;13.50;;
1569;SDS011;778;50.120;8.698;2022-08-19T05:56:04;14.97;;;13.10;;
1569;SDS011;778;50.120;8.698;2022-08-19T05:58:33;13.27;;;11.97;;
1569;SDS011;778;50.120;8.698;2022-08-19T06:01:02;14.50;;;13.10;;
1569;SDS011;778;50.120;8.698;2022-08-19T06:03:33;14.23;;;12.77;;
1569;SDS011;778;50.120;8.698;2022-08-19T06:06:03;14.27;;;12.73;;
1569;SDS011;778;50.120;8.698;2022-08-19T06:08:33;14.30;;;12.90;;
1569;SDS011;778;50.120;8.698;2022-08-19T06:11:14;13.30;;;12.10;;
1569;SDS011;778;50.120;8.698;2022-08-19T06:13:46;13.23;;;12.13;;
1569;SDS011;778;50.120;8.698;2022-08-19T06:16:25;13.90;;;12.70;;
1569;SDS011;778;50.120;8.698;2022-08-19T06:18:56;12.93;;;11.80;;
1569;SDS011;778;50.120;8.698;2022-08-19T06:21:28;12.70;;;11.60;;
1569;SDS011;778;50.120;8.698;2022-08-19T06:23:58;13.33;;;12.00;;
1569;SDS011;778;50.120;8.698;2022-08-19T06:26:27;12.57;;;11.37;;
1569;SDS011;778;50.120;8.698;2022-08-19T06:28:56;11.67;;;10.57;;
1569;SDS011;778;50.120;8.698;2022-08-19T06:31:25;11.43;;;10.33;;
1569;SDS011;778;50.120;8.698;2022-08-19T06:34:01;12.90;;;11.60;;
1569;SDS011;778;50.120;8.698;2022-08-19T06:36:32;14.50;;;10.40;;
1569;SDS011;778;50.120;8.698;2022-08-19T06:39:05;11.93;;;10.73;;
1569;SDS011;778;50.120;8.698;2022-08-19T06:41:37;13.00;;;10.60;;
1569;SDS011;778;50.120;8.698;2022-08-19T06:44:17;9.70;;;8.83;;
1569;SDS011;778;50.120;8.698;2022-08-19T06:46:47;10.50;;;9.40;;
1569;SDS011;778;50.120;8.698;2022-08-19T06:49:22;10.90;;;9.80;;
1569;SDS011;778;50.120;8.698;2022-08-19T06:51:53;10.90;;;9.80;;
1569;SDS011;778;50.120;8.698;2022-08-19T06:54:23;10.50;;;9.47;;
1569;SDS011;778;50.120;8.698;2022-08-19T06:56:56;9.60;;;8.80;;
1569;SDS011;778;50.120;8.698;2022-08-19T06:59:28;9.07;;;8.20;;
1569;SDS011;778;50.120;8.698;2022-08-19T07:02:01;9.60;;;8.73;;
1569;SDS011;778;50.120;8.698;2022-08-19T07:04:34;10.23;;;9.30;;
1569;SDS011;778;50.120;8.698;2022-08-19T07:07:08;8.63;;;7.93;;
1569;SDS011;778;50.120;8.698;2022-08-19T07:09:46;9.60;;;8.60;;
1569;SDS011;778;50.120;8.698;2022-08-19T07:12:25;9.00;;;8.10;;
1569;SDS011;778;50.120;8.698;2022-08-19T07:14:56;9.23;;;8.53;;
1569;SDS011;778;50.120;8.698;2022-08-19T07:17:27;8.93;;;8.07;;
1569;SDS011;778;50.120;8.698;2022-08-19T07:19:58;9.17;;;8.37;;
1569;SDS011;778;50.120;8.698;2022-08-19T07:22:32;7.97;;;7.27;;
1569;SDS011;778;50.120;8.698;2022-08-19T07:25:01;7.87;;;7.27;;
1569;SDS011;778;50.120;8.698;2022-08-19T07:27:31;9.13;;;7.97;;
1569;SDS011;778;50.120;8.698;2022-08-19T07:30:00;7.77;;;7.10;;
1569;SDS011;778;50.120;8.698;2022-08-19T07:32:30;11.33;;;7.60;;
1569;SDS011;778;50.120;8.698;2022-08-19T07:35:00;7.73;;;7.00;;
1569;SDS011;778;50.120;8.698;2022-08-19T07:37:29;7.67;;;7.00;;
1569;SDS011;778;50.120;8.698;2022-08-19T07:39:59;8.17;;;7.07;;
1569;SDS011;778;50.120;8.698;2022-08-19T07:42:28;8.23;;;7.43;;
1569;SDS011;778;50.120;8.698;2022-08-19T07:44:57;7.50;;;6.83;;
1569;SDS011;778;50.120;8.698;2022-08-19T07:47:26;7.00;;;6.50;;
1569;SDS011;778;50.120;8.698;2022-08-19T07:50:16;7.00;;;6.50;;
1569;SDS011;778;50.120;8.698;2022-08-19T07:52:48;7.90;;;7.20;;
1569;SDS011;778;50.120;8.698;2022-08-19T07:55:18;6.97;;;6.37;;
1569;SDS011;778;50.120;8.698;2022-08-19T07:58:09;6.87;;;6.20;;
1569;SDS011;778;50.120;8.698;2022-08-19T08:00:38;6.67;;;5.97;;
1569;SDS011;778;50.120;8.698;2022-08-19T08:03:07;5.90;;;5.40;;
1569;SDS011;778;50.120;8.698;2022-08-19T08:05:37;6.43;;;5.73;;
1569;SDS011;778;50.120;8.698;2022-08-19T08:08:25;6.37;;;5.77;;
1569;SDS011;778;50.120;8.698;2022-08-19T08:11:14;6.53;;;5.00;;
1569;SDS011;778;50.120;8.698;2022-08-19T08:13:46;7.17;;;5.60;;
1569;SDS011;778;50.120;8.698;2022-08-19T08:16:30;9.30;;;5.50;;
1569;SDS011;778;50.120;8.698;2022-08-19T08:19:05;7.00;;;6.50;;
1569;SDS011;778;50.120;8.698;2022-08-19T08:21:52;5.93;;;5.53;;
1569;SDS011;778;50.120;8.698;2022-08-19T08:24:22;8.20;;;5.50;;
1569;SDS011;778;50.120;8.698;2022-08-19T08:26:54;5.87;;;5.47;;
1569;SDS011;778;50.120;8.698;2022-08-19T08:29:23;6.00;;;5.23;;
1569;SDS011;778;50.120;8.698;2022-08-19T08:32:00;5.90;;;5.50;;
1569;SDS011;778;50.120;8.698;2022-08-19T08:34:39;6.70;;;6.10;;
1569;SDS011;778;50.120;8.698;2022-08-19T08:37:10;6.63;;;6.03;;
1569;SDS011;778;50.120;8.698;2022-08-19T08:39:41;5.10;;;4.60;;
1569;SDS011;778;50.120;8.698;2022-08-19T08:42:11;4.80;;;4.50;;
1569;SDS011;778;50.120;8.698;2022-08-19T08:44:48;7.53;;;4.63;;
1569;SDS011;778;50.120;8.698;2022-08-19T08:47:29;5.63;;;5.23;;
1569;SDS011;778;50.120;8.698;2022-08-19T08:50:07;5.93;;;5.17;;
1569;SDS011;778;50.120;8.698;2022-08-19T08:52:44;4.87;;;4.53;;
1569;SDS011;778;50.120;8.698;2022-08-19T08:55:17;7.83;;;5.07;;
1569;SDS011;778;50.120;8.698;2022-08-19T08:57:52;5.03;;;4.63;;
1569;SDS011;778;50.120;8.698;2022-08-19T09:00:29;5.53;;;5.10;;
1569;SDS011;778;50.120;8.698;2022-08-19T09:05:50;5.60;;;5.20;;
1569;SDS011;778;50.120;8.698;2022-08-19T09:08:31;5.70;;;5.00;;
1569;SDS011;778;50.120;8.698;2022-08-19T09:11:10;5.67;;;5.27;;
1569;SDS011;778;50.120;8.698;2022-08-19T09:14:07;5.90;;;5.13;;
1569;SDS011;778;50.120;8.698;2022-08-19T09:17:02;4.53;;;4.23;;
1569;SDS011;778;50.120;8.698;2022-08-19T09:19:34;5.63;;;5.23;;
1569;SDS011;778;50.120;8.698;2022-08-19T09:22:05;5.73;;;5.10;;
1569;SDS011;778;50.120;8.698;2022-08-19T09:24:37;5.77;;;5.27;;
1569;SDS011;778;50.120;8.698;2022-08-19T09:27:06;6.00;;;5.57;;
1569;SDS011;778;50.120;8.698;2022-08-19T09:29:44;5.50;;;5.10;;
1569;SDS011;778;50.120;8.698;2022-08-19T09:32:15;5.57;;;5.13;;
1569;SDS011;778;50.120;8.698;2022-08-19T09:34:52;5.47;;;5.07;;
1569;SDS011;778;50.120;8.698;2022-08-19T09:37:21;5.13;;;4.80;;
1569;SDS011;778;50.120;8.698;2022-08-19T09:39:52;7.77;;;5.83;;
1569;SDS011;778;50.120;8.698;2022-08-19T09:42:21;6.87;;;6.10;;
1569;SDS011;778;50.120;8.698;2022-08-19T09:45:00;6.20;;;5.70;;
1569;SDS011;778;50.120;8.698;2022-08-19T09:47:35;6.80;;;6.30;;
1569;SDS011;778;50.120;8.698;2022-08-19T09:50:07;6.63;;;5.90;;
1569;SDS011;778;50.120;8.698;2022-08-19T09:52:42;6.53;;;6.10;;
1569;SDS011;778;50.120;8.698;2022-08-19T09:55:24;7.17;;;5.90;;
1569;SDS011;778;50.120;8.698;2022-08-19T09:57:58;6.83;;;6.33;;
1569;SDS011;778;50.120;8.698;2022-08-19T10:00:28;7.40;;;6.70;;
1569;SDS011;778;50.120;8.698;2022-08-19T10:02:58;7.30;;;6.70;;
1569;SDS011;778;50.120;8.698;2022-08-19T10:05:26;7.67;;;6.97;;
1569;SDS011;778;50.120;8.698;2022-08-19T10:08:14;6.77;;;6.17;;
1569;SDS011;778;50.120;8.698;2022-08-19T10:10:47;7.07;;;6.47;;
1569;SDS011;778;50.120;8.698;2022-08-19T10:13:17;9.13;;;8.23;;
1569;SDS011;778;50.120;8.698;2022-08-19T10:15:52;7.87;;;6.97;;
1569;SDS011;778;50.120;8.698;2022-08-19T10:18:35;7.70;;;6.90;;
1569;SDS011;778;50.120;8.698;2022-08-19T10:21:15;7.87;;;7.07;;
1569;SDS011;778;50.120;8.698;2022-08-19T10:23:47;9.57;;;8.73;;
1569;SDS011;778;50.120;8.698;2022-08-19T10:26:20;7.93;;;7.20;;
1569;SDS011;778;50.120;8.698;2022-08-19T10:28:52;8.10;;;7.40;;
1569;SDS011;778;50.120;8.698;2022-08-19T10:31:23;8.23;;;7.10;;
1569;SDS011;778;50.120;8.698;2022-08-19T10:34:15;7.73;;;7.13;;
1569;SDS011;778;50.120;8.698;2022-08-19T10:36:53;8.20;;;7.40;;
1569;SDS011;778;50.120;8.698;2022-08-19T10:39:27;8.17;;;7.43;;
1569;SDS011;778;50.120;8.698;2022-08-19T10:42:09;7.97;;;7.47;;
1569;SDS011;778;50.120;8.698;2022-08-19T10:44:39;7.50;;;6.83;;
1569;SDS011;778;50.120;8.698;2022-08-19T10:47:08;9.13;;;8.43;;
1569;SDS011;778;50.120;8.698;2022-08-19T10:49:50;8.80;;;8.10;;
1569;SDS011;778;50.120;8.698;2022-08-19T10:52:38;10.47;;;9.70;;
1569;SDS011;778;50.120;8.698;2022-08-19T10:55:16;9.80;;;8.90;;
1569;SDS011;778;50.120;8.698;2022-08-19T10:58:06;9.00;;;8.30;;
1569;SDS011;778;50.120;8.698;2022-08-19T11:00:39;9.73;;;9.07;;
1569;SDS011;778;50.120;8.698;2022-08-19T11:03:09;9.13;;;8.40;;
1569;SDS011;778;50.120;8.698;2022-08-19T11:05:38;9.33;;;8.53;;
1569;SDS011;778;50.120;8.698;2022-08-19T11:08:07;10.03;;;9.23;;
1569;SDS011;778;50.120;8.698;2022-08-19T11:10:49;10.20;;;9.40;;
1569;SDS011;778;50.120;8.698;2022-08-19T11:13:27;10.60;;;9.70;;
1569;SDS011;778;50.120;8.698;2022-08-19T11:15:58;10.93;;;10.13;;
1569;SDS011;778;50.120;8.698;2022-08-19T11:18:34;10.67;;;9.87;;
1569;SDS011;778;50.120;8.698;2022-08-19T11:21:06;11.20;;;10.10;;
1569;SDS011;778;50.120;8.698;2022-08-19T11:23:38;9.13;;;8.43;;
1569;SDS011;778;50.120;8.698;2022-08-19T11:26:06;10.70;;;9.87;;
1569;SDS011;778;50.120;8.698;2022-08-19T11:28:36;10.43;;;9.73;;
1569;SDS011;778;50.120;8.698;2022-08-19T11:31:09;12.23;;;11.33;;
1569;SDS011;778;50.120;8.698;2022-08-19T11:33:39;11.80;;;10.80;;
1569;SDS011;778;50.120;8.698;2022-08-19T11:36:13;12.13;;;11.13;;
1569;SDS011;778;50.120;8.698;2022-08-19T11:38:41;11.97;;;11.03;;
1569;SDS011;778;50.120;8.698;2022-08-19T11:41:10;12.37;;;11.57;;
1569;SDS011;778;50.120;8.698;2022-08-19T11:43:41;12.27;;;11.37;;
1569;SDS011;778;50.120;8.698;2022-08-19T11:46:10;12.00;;;11.17;;
1569;SDS011;778;50.120;8.698;2022-08-19T11:48:41;10.50;;;9.80;;
1569;SDS011;778;50.120;8.698;2022-08-19T11:51:11;11.17;;;10.37;;
1569;SDS011;778;50.120;8.698;2022-08-19T11:53:41;12.60;;;11.60;;
1569;SDS011;778;50.120;8.698;2022-08-19T11:56:10;11.07;;;9.90;;
1569;SDS011;778;50.120;8.698;2022-08-19T11:58:41;11.73;;;10.80;;
1569;SDS011;778;50.120;8.698;2022-08-19T12:01:10;12.80;;;11.63;;
1569;SDS011;778;50.120;8.698;2022-08-19T12:03:41;13.53;;;11.30;;
1569;SDS011;778;50.120;8.698;2022-08-19T12:06:12;13.87;;;12.30;;
1569;SDS011;778;50.120;8.698;2022-08-19T12:08:43;11.83;;;11.00;;
1569;SDS011;778;50.120;8.698;2022-08-19T12:11:13;11.87;;;10.97;;
1569;SDS011;778;50.120;8.698;2022-08-19T12:13:43;10.37;;;9.67;;
1569;SDS011;778;50.120;8.698;2022-08-19T12:16:13;10.33;;;9.53;;
1569;SDS011;778;50.120;8.698;2022-08-19T12:18:45;10.50;;;9.80;;
1569;SDS011;778;50.120;8.698;2022-08-19T12:21:15;10.60;;;9.80;;
1569;SDS011;778;50.120;8.698;2022-08-19T12:23:47;11.13;;;10.33;;
1569;SDS011;778;50.120;8.698;2022-08-19T12:26:21;10.60;;;9.83;;
1569;SDS011;778;50.120;8.698;2022-08-19T12:28:52;12.00;;;11.00;;
1569;SDS011;778;50.120;8.698;2022-08-19T12:31:21;10.40;;;9.67;;
1569;SDS011;778;50.120;8.698;2022-08-19T12:33:49;10.93;;;10.13;;
1569;SDS011;778;50.120;8.698;2022-08-19T12:36:18;11.87;;;10.97;;
1569;SDS011;778;50.120;8.698;2022-08-19T12:38:48;12.17;;;11.20;;
1569;SDS011;778;50.120;8.698;2022-08-19T12:41:17;11.20;;;10.40;;
1569;SDS011;778;50.120;8.698;2022-08-19T12:43:48;11.60;;;10.77;;
1569;SDS011;778;50.120;8.698;2022-08-19T12:46:19;11.60;;;10.80;;
1569;SDS011;778;50.120;8.698;2022-08-19T12:48:51;12.60;;;11.70;;
1569;SDS011;778;50.120;8.698;2022-08-19T12:51:21;11.60;;;10.70;;
1569;SDS011;778;50.120;8.698;2022-08-19T12:53:51;12.90;;;11.73;;
1569;SDS011;778;50.120;8.698;2022-08-19T12:56:20;9.90;;;9.20;;
1569;SDS011;778;50.120;8.698;2022-08-19T12:58:48;9.90;;;9.10;;
1569;SDS011;778;50.120;8.698;2022-08-19T13:01:20;10.40;;;9.60;;
1569;SDS011;778;50.120;8.698;2022-08-19T13:03:49;11.53;;;10.83;;
1569;SDS011;778;50.120;8.698;2022-08-19T13:06:19;10.53;;;9.73;;
1569;SDS011;778;50.120;8.698;2022-08-19T13:08:48;11.97;;;10.93;;
1569;SDS011;778;50.120;8.698;2022-08-19T13:11:23;12.20;;;11.30;;
1569;SDS011;778;50.120;8.698;2022-08-19T13:13:52;11.87;;;11.07;;
1569;SDS011;778;50.120;8.698;2022-08-19T13:16:23;10.57;;;9.77;;
1569;SDS011;778;50.120;8.698;2022-08-19T13:18:52;10.67;;;9.83;;
1569;SDS011;778;50.120;8.698;2022-08-19T13:21:23;12.40;;;8.83;;
1569;SDS011;778;50.120;8.698;2022-08-19T13:23:56;11.13;;;9.40;;
1569;SDS011;778;50.120;8.698;2022-08-19T13:26:25;8.60;;;8.00;;
1569;SDS011;778;50.120;8.698;2022-08-19T13:28:53;8.33;;;7.73;;
1569;SDS011;778;50.120;8.698;2022-08-19T13:31:41;8.27;;;7.33;;
1569;SDS011;778;50.120;8.698;2022-08-19T13:34:29;7.90;;;7.30;;
1569;SDS011;778;50.120;8.698;2022-08-19T13:37:02;7.83;;;7.13;;
1569;SDS011;778;50.120;8.698;2022-08-19T13:39:32;8.00;;;7.30;;
1569;SDS011;778;50.120;8.698;2022-08-19T13:42:03;7.30;;;6.70;;
1569;SDS011;778;50.120;8.698;2022-08-19T13:44:33;7.53;;;6.87;;
1569;SDS011;778;50.120;8.698;2022-08-19T13:47:04;7.50;;;6.90;;
1569;SDS011;778;50.120;8.698;2022-08-19T13:49:34;8.07;;;7.47;;
1569;SDS011;778;50.120;8.698;2022-08-19T13:52:04;7.97;;;7.40;;
1569;SDS011;778;50.120;8.698;2022-08-19T13:54:33;8.83;;;8.13;;
1569;SDS011;778;50.120;8.698;2022-08-19T13:57:02;9.07;;;8.23;;
1569;SDS011;778;50.120;8.698;2022-08-19T13:59:31;8.07;;;7.47;;
1569;SDS011;778;50.120;8.698;2022-08-19T14:02:00;7.10;;;6.63;;
1569;SDS011;778;50.120;8.698;2022-08-19T14:04:31;7.80;;;7.20;;
1569;SDS011;778;50.120;8.698;2022-08-19T14:07:00;7.67;;;6.97;;
1569;SDS011;778;50.120;8.698;2022-08-19T14:09:28;7.67;;;6.90;;
1569;SDS011;778;50.120;8.698;2022-08-19T14:11:57;6.83;;;6.33;;
1569;SDS011;778;50.120;8.698;2022-08-19T14:14:26;6.33;;;5.83;;
1569;SDS011;778;50.120;8.698;2022-08-19T14:16:55;5.93;;;5.27;;
1569;SDS011;778;50.120;8.698;2022-08-19T14:19:25;6.13;;;5.63;;
1569;SDS011;778;50.120;8.698;2022-08-19T14:21:55;5.80;;;5.40;;
1569;SDS011;778;50.120;8.698;2022-08-19T14:24:25;8.63;;;5.87;;
1569;SDS011;778;50.120;8.698;2022-08-19T14:26:53;6.97;;;6.47;;
1569;SDS011;778;50.120;8.698;2022-08-19T14:29:22;6.80;;;5.50;;
1569;SDS011;778;50.120;8.698;2022-08-19T14:31:50;5.50;;;5.20;;
1569;SDS011;778;50.120;8.698;2022-08-19T14:34:19;5.73;;;5.33;;
1569;SDS011;778;50.120;8.698;2022-08-19T14:36:49;6.93;;;6.43;;
1569;SDS011;778;50.120;8.698;2022-08-19T14:39:19;6.30;;;5.90;;
1569;SDS011;778;50.120;8.698;2022-08-19T14:41:47;5.07;;;4.60;;
1569;SDS011;778;50.120;8.698;2022-08-19T14:44:16;6.30;;;5.50;;
1569;SDS011;778;50.120;8.698;2022-08-19T14:46:44;5.97;;;5.47;;
1569;SDS011;778;50.120;8.698;2022-08-19T14:49:15;6.63;;;6.00;;
1569;SDS011;778;50.120;8.698;2022-08-19T14:51:44;5.90;;;5.50;;
1569;SDS011;778;50.120;8.698;2022-08-19T14:54:15;6.20;;;5.60;;
1569;SDS011;778;50.120;8.698;2022-08-19T14:56:43;6.23;;;5.73;;
1569;SDS011;778;50.120;8.698;2022-08-19T14:59:12;9.90;;;5.90;;
1569;SDS011;778;50.120;8.698;2022-08-19T15:01:41;5.90;;;5.40;;
1569;SDS011;778;50.120;8.698;2022-08-19T15:04:10;5.90;;;5.50;;
1569;SDS011;778;50.120;8.698;2022-08-19T15:06:38;5.70;;;5.40;;
1569;SDS011;778;50.120;8.698;2022-08-19T15:09:08;5.47;;;5.10;;
1569;SDS011;778;50.120;8.698;2022-08-19T15:11:39;10.00;;;5.37;;
1569;SDS011;778;50.120;8.698;2022-08-19T15:14:07;5.93;;;5.53;;
1569;SDS011;778;50.120;8.698;2022-08-19T15:16:36;4.90;;;4.50;;
1569;SDS011;778;50.120;8.698;2022-08-19T15:19:08;6.83;;;5.27;;
1569;SDS011;778;50.120;8.698;2022-08-19T15:21:38;6.00;;;5.50;;
1569;SDS011;778;50.120;8.698;2022-08-19T15:24:06;6.40;;;5.90;;
1569;SDS011;778;50.120;8.698;2022-08-19T15:26:35;5.67;;;5.27;;
1569;SDS011;778;50.120;8.698;2022-08-19T15:29:05;5.93;;;5.47;;
1569;SDS011;778;50.120;8.698;2022-08-19T15:31:34;5.50;;;5.10;;
1569;SDS011;778;50.120;8.698;2022-08-19T15:34:04;5.03;;;4.63;;
1569;SDS011;778;50.120;8.698;2022-08-19T15:36:33;5.20;;;4.90;;
1569;SDS011;778;50.120;8.698;2022-08-19T15:39:03;5.40;;;4.90;;
1569;SDS011;778;50.120;8.698;2022-08-19T15:41:32;5.07;;;4.67;;
1569;SDS011;778;50.120;8.698;2022-08-19T15:44:03;5.00;;;4.70;;
1569;SDS011;778;50.120;8.698;2022-08-19T15:46:37;5.17;;;4.77;;
1569;SDS011;778;50.120;8.698;2022-08-19T15:49:07;5.30;;;4.90;;